Impacts METAR Board
IDs:

KFPR - Ft Pierce/St Lucie I, FL, US

Updated at: 2300 UTC 30 Jun 2022
Potential Impact None Slight Moderate High
Time 30/11Z 30/12Z 30/13Z 30/14Z 30/15Z 30/16Z 30/17Z 30/18Z 30/19Z 30/20Z 30/21Z 30/22Z 30/23Z
Temp77 80 83 86 88 87 76 77 83 83 85 85 85
Dewpt75 78 76 75 73 74 69 73 74 77 76 76 74
Altim30.11 30.13 30.13 30.14 30.14 30.13 30.15 30.12 30.12 30.08 30.08 30.07 30.09
VIS10 10 10 10 10 10 0.5 10 10 10 10 10 10
CIG-- -- -- -- -- -- 25 -- 60 -- -- -- --
CoverCLRCLRCLRFEWFEWFEWOVCSCTBKNSCTCLRCLRCLR
FltCatVFRVFRVFRVFRVFRVFRLIFRVFRVFRVFRVFRVFRVFR
WX----------VCTS+TSRATSVCTS--------
WDir1702002200180320350120100130140140
WSpd3 3 6 0 6 16 3 7 9 12 12 12
WGst-- -- -- -- -- -- 22 -- -- -- -- -- --
Raw hourly METARs
KFPR 301053Z 17003KT 10SM CLR 25/24 A3011 RMK AO2 SLP196 T02500239
KFPR 301153Z 20003KT 10SM CLR 27/26 A3013 RMK AO2 SLP201 T02670256 10267 20233 53007
KFPR 301253Z 22006KT 10SM CLR 28/24 A3013 RMK AO2 SLP202 T02830244
KFPR 301353Z 00000KT 10SM FEW024 30/24 A3014 RMK AO2 LTG DSNT SE SLP205 T03000239
KFPR 301453Z 18006KT 10SM FEW032 31/23 A3014 RMK AO2 SLP204 T03110228 50004
KFPR 301600Z 10SM VCTS FEW038 31/23 A3013 RMK AO2 LTG DSNT N T03060233 $
KFPR 301704Z 32016G22KT 1/2SM +TSRA FEW008 BKN025 OVC050 24/21 A3015 RMK FUNNEL CLOUD B1655 FUNNEL CLOUD E1658 AO2 LTG DSNT SE AND S RAB1655 PRESRR P0037 T02440206 $
KFPR 301753Z 35003KT 10SM TS SCT009 SCT055 25/23 A3012 RMK FUNNEL CLOUD B1655 FUNNEL CLOUD E1657 TORNADO B1657 TORNADO E1658 AO2 PK WND 34030/1716 LTG DSNT S AND SW RAB1655E43 SLP199 P0180 60180 T02500228
KFPR 301853Z 12007KT 10SM VCTS FEW025 SCT032 BKN060 28/23 A3012 RMK AO2 LTG DSNT SW TSE00 SLP198 T02830233
KFPR 301953Z 10009KT 10SM FEW042 FEW070 SCT100 28/25 A3008 RMK AO2 LTG DSNT S AND NW RAB10E42 SLP186 P0000 T02830250
KFPR 302053Z 13012KT 10SM CLR 29/24 A3008 RMK AO2 SLP185 60000 T02940244 57014
KFPR 302153Z 14012KT 10SM CLR 29/24 A3007 RMK AO2 LTG DSNT S SLP183 T02940244
KFPR 302253Z 14012KT 10SM CLR 29/23 A3009 RMK AO2 LTG DSNT S SLP189 T02940233



Page loaded:  23:16 UTC  |   04:16 PM Pacific  |   05:16 PM Mountain  |   06:16 PM Central  |   07:16 PM Eastern

 

ADVISORIES

FORECASTS

FORECASTS

OBSERVATIONS

USER TOOLS

ABOUT US